Max, ND (58759)

10:41 AM CDT on July 23, 2016 (GMT -0500)
Olson Farm | | Change Station

Elev 2008 ft 47.77 °N, 101.17 °W | Updated 8 seconds ago

Overcast
Overcast
70.2 °F
Feels Like 71 °F
N
2.5
Wind Variable Wind from ESE
Gusts 4.9 mph

Today
High -- | Low -- °F
--% Chance of Precip.
Yesterday
High -- | Low -- °F
Precip. -- in
Pressure 29.78 in
Visibility 10.0 miles
Clouds Overcast 8000 ft
Heat Index 71 °F
Dew Point 64 °F
Humidity 81%
Rainfall 1.24 in
Snow Depth Not available.
6:11 AM 9:31 PM
Waning Gibbous, 84% visible
SPECI KMOT 231515Z 20005KT 10SM -RA OVC080 21/18 A2978 RMK AO2 RAB15 TSB1456E11 P0000 T02060183
Pressure 29.78 in
Visibility 10.0 miles
Clouds Overcast 8000 ft
Heat Index 71 °F
Dew Point 64 °F
Humidity 81%
Rainfall 1.24 in
Snow Depth Not available.
6:11 AM 9:31 PM
Waning Gibbous, 84% visible
SPECI KMOT 231515Z 20005KT 10SM -RA OVC080 21/18 A2978 RMK AO2 RAB15 TSB1456E11 P0000 T02060183

10-Day Weather Forecast

Almanac

Astronomy

Jul. 23, 2016 Rise Set
Actual Time
Civil Twilight
Nautical Twilight
Astronomical Twilight
Moon
Length of Visible Light
Length of Day
Tomorrow will be .
, % of the Moon is Illuminated

Today's Extremes

State Highs State Lows

Community

WunderPhotos

Upload Photos

1,926,848 photos uploaded!

WunderBlog® & News

Nearby

Air Quality

  Air Quality AQ Index Pollutant
Not available.

Snow Depth

Station Depth Elevation

Earthquake Activity

City Distance Mag. Time & Date
Minimum magnitude displayed is 2.5.

Coastal Water Temperatures

Place Temperature

Stations

Nearby Weather Stations

Station Location Temp. Windchill Dew Point Humidity Wind Precip. Elev Updated Type
                   

Watches & Warnings

There are currently no watches in effect.